sensor_id;sensor_type;location;lat;lon;timestamp;pressure;altitude;pressure_sealevel;temperature;humidity
20368;BME280;10343;52.402;9.796;2022-12-10T00:09:20;100332.16;;;1.19;100.00
20368;BME280;10343;52.402;9.796;2022-12-10T00:12:15;100320.88;;;1.24;100.00
20368;BME280;10343;52.402;9.796;2022-12-10T00:14:54;100322.75;;;1.40;99.11
20368;BME280;10343;52.402;9.796;2022-12-10T00:17:48;100325.38;;;1.40;98.94
20368;BME280;10343;52.402;9.796;2022-12-10T00:20:33;100331.41;;;1.33;97.96
20368;BME280;10343;52.402;9.796;2022-12-10T00:23:49;100327.00;;;1.27;99.13
20368;BME280;10343;52.402;9.796;2022-12-10T00:26:24;100329.63;;;1.29;100.00
20368;BME280;10343;52.402;9.796;2022-12-10T00:28:54;100334.97;;;1.41;97.92
20368;BME280;10343;52.402;9.796;2022-12-10T00:31:26;100334.16;;;1.48;98.57
20368;BME280;10343;52.402;9.796;2022-12-10T00:33:57;100331.44;;;1.36;97.01
20368;BME280;10343;52.402;9.796;2022-12-10T00:36:48;100337.50;;;1.33;98.52
20368;BME280;10343;52.402;9.796;2022-12-10T00:39:18;100334.91;;;1.35;97.92
20368;BME280;10343;52.402;9.796;2022-12-10T00:41:52;100340.94;;;1.29;98.14
20368;BME280;10343;52.402;9.796;2022-12-10T00:44:22;100344.38;;;1.24;98.46
20368;BME280;10343;52.402;9.796;2022-12-10T00:47:03;100348.50;;;1.00;98.84
20368;BME280;10343;52.402;9.796;2022-12-10T00:49:37;100346.84;;;1.08;99.21
20368;BME280;10343;52.402;9.796;2022-12-10T00:52:11;100353.69;;;0.97;99.97
20368;BME280;10343;52.402;9.796;2022-12-10T00:54:40;100348.44;;;0.94;99.75
20368;BME280;10343;52.402;9.796;2022-12-10T00:57:11;100350.97;;;0.88;100.00
20368;BME280;10343;52.402;9.796;2022-12-10T00:59:41;100347.75;;;1.10;100.00
20368;BME280;10343;52.402;9.796;2022-12-10T01:02:10;100353.69;;;0.97;100.00
20368;BME280;10343;52.402;9.796;2022-12-10T01:04:39;100349.28;;;0.91;100.00
20368;BME280;10343;52.402;9.796;2022-12-10T01:07:11;100355.44;;;0.98;100.00
20368;BME280;10343;52.402;9.796;2022-12-10T01:09:44;100354.50;;;0.91;100.00
20368;BME280;10343;52.402;9.796;2022-12-10T01:12:15;100355.47;;;0.99;100.00
20368;BME280;10343;52.402;9.796;2022-12-10T01:14:44;100366.72;;;0.95;100.00
20368;BME280;10343;52.402;9.796;2022-12-10T01:17:15;100358.16;;;1.09;100.00
20368;BME280;10343;52.402;9.796;2022-12-10T01:19:44;100363.28;;;0.98;100.00
20368;BME280;10343;52.402;9.796;2022-12-10T01:22:16;100364.84;;;0.82;100.00
20368;BME280;10343;52.402;9.796;2022-12-10T01:24:52;100376.06;;;0.75;100.00
20368;BME280;10343;52.402;9.796;2022-12-10T01:27:25;100372.69;;;0.87;100.00
20368;BME280;10343;52.402;9.796;2022-12-10T01:29:59;100371.25;;;1.10;100.00
20368;BME280;10343;52.402;9.796;2022-12-10T01:32:28;100367.63;;;0.99;100.00
20368;BME280;10343;52.402;9.796;2022-12-10T01:34:59;100378.00;;;0.93;100.00
20368;BME280;10343;52.402;9.796;2022-12-10T01:37:29;100379.69;;;0.88;100.00
20368;BME280;10343;52.402;9.796;2022-12-10T01:40:00;100377.16;;;0.94;100.00
20368;BME280;10343;52.402;9.796;2022-12-10T01:42:37;100376.22;;;0.89;100.00
20368;BME280;10343;52.402;9.796;2022-12-10T01:45:12;100381.44;;;0.89;100.00
20368;BME280;10343;52.402;9.796;2022-12-10T01:47:41;100373.78;;;1.06;100.00
20368;BME280;10343;52.402;9.796;2022-12-10T01:50:09;100381.34;;;0.82;100.00
20368;BME280;10343;52.402;9.796;2022-12-10T01:52:41;100379.66;;;0.86;100.00
20368;BME280;10343;52.402;9.796;2022-12-10T01:55:42;100386.72;;;0.93;100.00
20368;BME280;10343;52.402;9.796;2022-12-10T02:05:07;100384.09;;;0.95;100.00
20368;BME280;10343;52.402;9.796;2022-12-10T02:07:48;100388.22;;;0.74;99.64
20368;BME280;10343;52.402;9.796;2022-12-10T02:10:33;100378.03;;;0.96;98.96
20368;BME280;10343;52.402;9.796;2022-12-10T02:13:18;100383.22;;;0.90;97.39
20368;BME280;10343;52.402;9.796;2022-12-10T02:15:51;100377.22;;;1.01;96.06
20368;BME280;10343;52.402;9.796;2022-12-10T02:18:26;100391.91;;;0.90;96.51
20368;BME280;10343;52.402;9.796;2022-12-10T02:21:13;100387.50;;;0.84;98.56
20368;BME280;10343;52.402;9.796;2022-12-10T02:24:04;100372.69;;;0.83;98.90
20368;BME280;10343;52.402;9.796;2022-12-10T02:26:58;100362.72;;;1.27;96.30
20368;BME280;10343;52.402;9.796;2022-12-10T02:29:36;100361.53;;;0.97;96.64
20368;BME280;10343;52.402;9.796;2022-12-10T02:32:19;100364.16;;;0.98;95.32
20368;BME280;10343;52.402;9.796;2022-12-10T02:35:03;100355.63;;;1.16;94.03
20368;BME280;10343;52.402;9.796;2022-12-10T02:37:38;100358.94;;;1.00;94.84
20368;BME280;10343;52.402;9.796;2022-12-10T02:40:26;100358.88;;;0.94;95.35
20368;BME280;10343;52.402;9.796;2022-12-10T02:43:09;100352.09;;;1.11;94.82
20368;BME280;10343;52.402;9.796;2022-12-10T02:58:10;100371.19;;;1.07;92.46
20368;BME280;10343;52.402;9.796;2022-12-10T03:01:01;100369.63;;;1.22;91.44
20368;BME280;10343;52.402;9.796;2022-12-10T03:04:36;100377.09;;;0.91;91.89
20368;BME280;10343;52.402;9.796;2022-12-10T03:07:27;100369.50;;;1.09;91.09
20368;BME280;10343;52.402;9.796;2022-12-10T03:13:50;100362.38;;;0.96;91.00
20368;BME280;10343;52.402;9.796;2022-12-10T03:17:05;100371.19;;;1.07;89.84
20368;BME280;10343;52.402;9.796;2022-12-10T03:19:56;100377.94;;;0.87;90.15
20368;BME280;10343;52.402;9.796;2022-12-10T03:23:12;100367.75;;;1.11;89.41
20368;BME280;10343;52.402;9.796;2022-12-10T03:26:08;100368.69;;;1.16;88.53
20368;BME280;10343;52.402;9.796;2022-12-10T03:29:02;100371.13;;;1.01;89.78
20368;BME280;10343;52.402;9.796;2022-12-10T03:32:36;100373.59;;;0.87;90.36
20368;BME280;10343;52.402;9.796;2022-12-10T03:35:08;100368.28;;;0.79;90.51
20368;BME280;10343;52.402;9.796;2022-12-10T03:37:39;100376.97;;;0.78;91.42
20368;BME280;10343;52.402;9.796;2022-12-10T03:40:25;100378.56;;;0.65;93.09
20368;BME280;10343;52.402;9.796;2022-12-10T03:43:35;100375.97;;;0.67;94.27
20368;BME280;10343;52.402;9.796;2022-12-10T03:47:19;100379.53;;;0.75;94.95
20368;BME280;10343;52.402;9.796;2022-12-10T03:50:37;100375.16;;;0.74;94.98
20368;BME280;10343;52.402;9.796;2022-12-10T03:53:27;100375.22;;;0.77;94.67
20368;BME280;10343;52.402;9.796;2022-12-10T03:56:02;100384.41;;;0.47;93.95
20368;BME280;10343;52.402;9.796;2022-12-10T03:58:36;100372.41;;;0.62;94.46
20368;BME280;10343;52.402;9.796;2022-12-10T04:01:13;100380.50;;;0.82;93.06
20368;BME280;10343;52.402;9.796;2022-12-10T04:03:52;100374.34;;;0.78;93.22
20368;BME280;10343;52.402;9.796;2022-12-10T04:06:44;100377.78;;;0.74;94.14
20368;BME280;10343;52.402;9.796;2022-12-10T04:09:23;100377.72;;;0.66;93.55
20368;BME280;10343;52.402;9.796;2022-12-10T04:11:58;100387.47;;;0.83;93.36
20368;BME280;10343;52.402;9.796;2022-12-10T04:14:28;100387.00;;;0.46;93.56
20368;BME280;10343;52.402;9.796;2022-12-10T04:17:15;100389.50;;;0.40;94.80
20368;BME280;10343;52.402;9.796;2022-12-10T04:19:46;100398.25;;;0.40;95.03
20368;BME280;10343;52.402;9.796;2022-12-10T04:22:22;100397.97;;;0.22;95.78
20368;BME280;10343;52.402;9.796;2022-12-10T04:25:16;100394.56;;;0.27;96.64
20368;BME280;10343;52.402;9.796;2022-12-10T04:28:04;100393.25;;;0.59;95.42
20368;BME280;10343;52.402;9.796;2022-12-10T04:30:44;100399.31;;;0.56;94.07
20368;BME280;10343;52.402;9.796;2022-12-10T04:33:22;100399.28;;;0.55;94.43
20368;BME280;10343;52.402;9.796;2022-12-10T04:35:54;100389.84;;;0.64;94.53
20368;BME280;10343;52.402;9.796;2022-12-10T04:38:39;100391.63;;;0.67;93.15
20368;BME280;10343;52.402;9.796;2022-12-10T04:41:29;100398.44;;;0.57;93.18
20368;BME280;10343;52.402;9.796;2022-12-10T04:44:02;100399.13;;;0.44;93.31
20368;BME280;10343;52.402;9.796;2022-12-10T04:46:37;100397.34;;;0.41;94.15
20368;BME280;10343;52.402;9.796;2022-12-10T04:49:19;100396.66;;;0.52;93.31
20368;BME280;10343;52.402;9.796;2022-12-10T04:51:49;100384.25;;;0.35;93.54
20368;BME280;10343;52.402;9.796;2022-12-10T04:54:25;100390.28;;;0.31;94.37
20368;BME280;10343;52.402;9.796;2022-12-10T04:57:04;100385.91;;;0.30;93.57
20368;BME280;10343;52.402;9.796;2022-12-10T04:59:41;100391.28;;;0.42;92.33
20368;BME280;10343;52.402;9.796;2022-12-10T05:02:10;100391.44;;;0.52;91.32
20368;BME280;10343;52.402;9.796;2022-12-10T05:04:41;100394.91;;;0.54;90.69
20368;BME280;10343;52.402;9.796;2022-12-10T05:07:11;100398.41;;;0.54;88.93
20368;BME280;10343;52.402;9.796;2022-12-10T05:09:43;100391.50;;;0.58;87.02
20368;BME280;10343;52.402;9.796;2022-12-10T05:12:13;100391.56;;;0.61;88.55
20368;BME280;10343;52.402;9.796;2022-12-10T05:14:43;100394.03;;;0.52;88.94
20368;BME280;10343;52.402;9.796;2022-12-10T05:17:14;100392.34;;;0.55;88.39
20368;BME280;10343;52.402;9.796;2022-12-10T05:19:43;100394.19;;;0.62;87.90
20368;BME280;10343;52.402;9.796;2022-12-10T05:22:12;100399.47;;;0.70;87.78
20368;BME280;10343;52.402;9.796;2022-12-10T05:25:05;100391.47;;;0.56;87.96
20368;BME280;10343;52.402;9.796;2022-12-10T05:27:37;100396.16;;;0.82;87.16
20368;BME280;10343;52.402;9.796;2022-12-10T05:30:09;100389.06;;;0.72;86.23
20368;BME280;10343;52.402;9.796;2022-12-10T05:38:32;100392.94;;;0.36;88.41
20368;BME280;10343;52.402;9.796;2022-12-10T05:41:16;100392.66;;;0.15;89.55
20368;BME280;10343;52.402;9.796;2022-12-10T05:50:19;100402.50;;;0.33;89.50
20368;BME280;10343;52.402;9.796;2022-12-10T06:05:36;100415.53;;;0.35;90.28
20368;BME280;10343;52.402;9.796;2022-12-10T06:08:16;100417.31;;;0.36;89.32
20368;BME280;10343;52.402;9.796;2022-12-10T06:10:45;100418.28;;;0.43;89.91
20368;BME280;10343;52.402;9.796;2022-12-10T06:13:16;100426.13;;;0.44;89.13
20368;BME280;10343;52.402;9.796;2022-12-10T06:15:57;100430.22;;;0.28;88.87
20368;BME280;10343;52.402;9.796;2022-12-10T06:18:37;100429.41;;;0.31;89.76
20368;BME280;10343;52.402;9.796;2022-12-10T06:21:14;100431.09;;;0.29;90.04
20368;BME280;10343;52.402;9.796;2022-12-10T06:23:54;100431.34;;;0.44;89.66
20368;BME280;10343;52.402;9.796;2022-12-10T06:26:31;100439.78;;;0.26;88.86
20368;BME280;10343;52.402;9.796;2022-12-10T06:29:11;100442.06;;;0.06;89.25
20368;BME280;10343;52.402;9.796;2022-12-10T06:31:43;100430.03;;;0.14;89.49
20368;BME280;10343;52.402;9.796;2022-12-10T06:34:16;100444.44;;;-0.08;89.50
20368;BME280;10343;52.402;9.796;2022-12-10T06:36:50;100446.19;;;-0.08;90.72
20368;BME280;10343;52.402;9.796;2022-12-10T06:39:24;100442.63;;;-0.13;90.77
20368;BME280;10343;52.402;9.796;2022-12-10T06:42:04;100440.84;;;-0.14;91.24
20368;BME280;10343;52.402;9.796;2022-12-10T06:44:41;100446.19;;;-0.08;91.05
20368;BME280;10343;52.402;9.796;2022-12-10T06:47:20;100444.31;;;-0.15;91.75
20368;BME280;10343;52.402;9.796;2022-12-10T06:49:53;100445.38;;;-0.04;90.87
20368;BME280;10343;52.402;9.796;2022-12-10T06:52:36;100453.91;;;-0.13;90.77
20368;BME280;10343;52.402;9.796;2022-12-10T06:55:09;100445.19;;;-0.15;91.65
20368;BME280;10343;52.402;9.796;2022-12-10T06:57:42;100443.63;;;-0.04;91.03
20368;BME280;10343;52.402;9.796;2022-12-10T07:00:20;100448.84;;;-0.05;90.12
20368;BME280;10343;52.402;9.796;2022-12-10T07:03:01;100451.41;;;-0.08;90.78
20368;BME280;10343;52.402;9.796;2022-12-10T07:05:32;100454.88;;;-0.06;90.21
20368;BME280;10343;52.402;9.796;2022-12-10T07:08:07;100456.72;;;0.01;89.44
20368;BME280;10343;52.402;9.796;2022-12-10T07:10:39;100457.63;;;0.00;89.64
20368;BME280;10343;52.402;9.796;2022-12-10T07:13:22;100460.13;;;-0.05;89.15
20368;BME280;10343;52.402;9.796;2022-12-10T07:15:58;100461.03;;;-0.03;89.41
20368;BME280;10343;52.402;9.796;2022-12-10T07:18:37;100454.88;;;-0.06;89.81
20368;BME280;10343;52.402;9.796;2022-12-10T07:21:19;100463.63;;;-0.04;88.71
20368;BME280;10343;52.402;9.796;2022-12-10T07:24:33;100463.72;;;0.04;89.04
20368;BME280;10343;52.402;9.796;2022-12-10T07:27:21;100465.50;;;0.06;89.19
20368;BME280;10343;52.402;9.796;2022-12-10T07:30:15;100474.50;;;0.24;89.15
20368;BME280;10343;52.402;9.796;2022-12-10T07:32:46;100470.88;;;0.15;89.08
20368;BME280;10343;52.402;9.796;2022-12-10T07:35:32;100473.94;;;0.45;88.27
20368;BME280;10343;52.402;9.796;2022-12-10T07:38:35;100477.41;;;0.45;87.70
20368;BME280;10343;52.402;9.796;2022-12-10T07:41:41;100485.13;;;0.36;88.77
20368;BME280;10343;52.402;9.796;2022-12-10T07:44:22;100493.88;;;0.41;89.15
20368;BME280;10343;52.402;9.796;2022-12-10T07:47:00;100493.78;;;0.35;88.74
20368;BME280;10343;52.402;9.796;2022-12-10T07:49:56;100498.81;;;0.23;89.13
20368;BME280;10343;52.402;9.796;2022-12-10T07:52:38;100496.25;;;0.26;89.00
20368;BME280;10343;52.402;9.796;2022-12-10T07:55:12;100495.25;;;0.17;89.57
20368;BME280;10343;52.402;9.796;2022-12-10T07:57:52;100498.09;;;0.33;89.56
20368;BME280;10343;52.402;9.796;2022-12-10T08:00:30;100496.25;;;0.27;88.51
20368;BME280;10343;52.402;9.796;2022-12-10T08:03:03;100491.66;;;0.11;89.03
20368;BME280;10343;52.402;9.796;2022-12-10T08:05:37;100492.94;;;0.36;87.92
20368;BME280;10343;52.402;9.796;2022-12-10T08:08:05;100503.28;;;0.31;88.82
20368;BME280;10343;52.402;9.796;2022-12-10T08:10:43;100491.38;;;0.49;87.31
20368;BME280;10343;52.402;9.796;2022-12-10T08:13:21;100502.50;;;0.37;87.21
20368;BME280;10343;52.402;9.796;2022-12-10T08:15:54;100503.22;;;0.27;88.00
20368;BME280;10343;52.402;9.796;2022-12-10T08:18:33;100508.44;;;0.27;88.77
20368;BME280;10343;52.402;9.796;2022-12-10T08:21:05;100493.03;;;0.42;88.27
20368;BME280;10343;52.402;9.796;2022-12-10T08:23:36;100496.34;;;0.30;88.11
20368;BME280;10343;52.402;9.796;2022-12-10T08:26:16;100502.63;;;0.46;88.13
20368;BME280;10343;52.402;9.796;2022-12-10T08:29:28;100503.22;;;0.27;87.17
20368;BME280;10343;52.402;9.796;2022-12-10T08:31:58;100511.91;;;0.27;88.54
20368;BME280;10343;52.402;9.796;2022-12-10T08:34:34;100519.41;;;0.07;89.31
20368;BME280;10343;52.402;9.796;2022-12-10T08:37:04;100522.69;;;-0.03;89.91
20368;BME280;10343;52.402;9.796;2022-12-10T08:39:38;100519.81;;;0.32;90.00
20368;BME280;10343;52.402;9.796;2022-12-10T08:42:07;100519.50;;;0.13;89.24
20368;BME280;10343;52.402;9.796;2022-12-10T08:44:49;100520.44;;;0.15;89.96
20368;BME280;10343;52.402;9.796;2022-12-10T08:47:20;100523.31;;;0.34;89.71
20368;BME280;10343;52.402;9.796;2022-12-10T08:50:02;100526.94;;;0.44;89.50
20368;BME280;10343;52.402;9.796;2022-12-10T08:52:35;100518.59;;;0.65;88.63
20368;BME280;10343;52.402;9.796;2022-12-10T08:55:07;100524.59;;;0.59;88.32
20368;BME280;10343;52.402;9.796;2022-12-10T08:57:44;100525.69;;;0.75;86.61
20368;BME280;10343;52.402;9.796;2022-12-10T09:00:31;100520.75;;;0.37;88.50
20368;BME280;10343;52.402;9.796;2022-12-10T09:03:09;100527.06;;;0.52;88.23
20368;BME280;10343;52.402;9.796;2022-12-10T09:06:40;100525.41;;;0.55;88.04
20368;BME280;10343;52.402;9.796;2022-12-10T09:10:12;100536.13;;;0.75;88.85
20368;BME280;10343;52.402;9.796;2022-12-10T09:13:20;100538.50;;;0.58;87.38
20368;BME280;10343;52.402;9.796;2022-12-10T09:16:02;100541.25;;;0.14;89.85
20368;BME280;10343;52.402;9.796;2022-12-10T09:18:34;100539.72;;;0.27;90.55
20368;BME280;10343;52.402;9.796;2022-12-10T09:21:05;100542.41;;;0.33;90.32
20368;BME280;10343;52.402;9.796;2022-12-10T09:23:49;100549.56;;;0.43;90.65
20368;BME280;10343;52.402;9.796;2022-12-10T09:26:33;100546.41;;;0.11;91.88
20368;BME280;10343;52.402;9.796;2022-12-10T09:29:49;100550.56;;;0.53;90.58
20368;BME280;10343;52.402;9.796;2022-12-10T09:33:13;100547.19;;;0.59;90.94
20368;BME280;10343;52.402;9.796;2022-12-10T09:36:20;100551.13;;;0.33;91.12
20368;BME280;10343;52.402;9.796;2022-12-10T09:39:10;100553.31;;;0.61;89.77
20368;BME280;10343;52.402;9.796;2022-12-10T09:42:20;100548.38;;;0.26;89.78
20368;BME280;10343;52.402;9.796;2022-12-10T09:45:18;100548.28;;;0.18;91.10
20368;BME280;10343;52.402;9.796;2022-12-10T09:48:27;100545.81;;;0.27;91.54
20368;BME280;10343;52.402;9.796;2022-12-10T09:51:12;100544.38;;;0.46;91.53
20368;BME280;10343;52.402;9.796;2022-12-10T09:54:25;100541.00;;;0.54;90.55
20368;BME280;10343;52.402;9.796;2022-12-10T09:57:35;100539.16;;;0.46;90.25
20368;BME280;10343;52.402;9.796;2022-12-10T10:00:47;100547.78;;;0.42;90.54
20368;BME280;10343;52.402;9.796;2022-12-10T10:07:33;100552.56;;;0.14;91.91
20368;BME280;10343;52.402;9.796;2022-12-10T10:13:33;100541.31;;;0.19;91.81
20368;BME280;10343;52.402;9.796;2022-12-10T10:16:45;100549.63;;;0.49;92.08
20368;BME280;10343;52.402;9.796;2022-12-10T10:19:38;100548.97;;;0.61;89.21
20368;BME280;10343;52.402;9.796;2022-12-10T10:42:36;100544.09;;;0.28;90.61
20368;BME280;10343;52.402;9.796;2022-12-10T10:46:02;100542.38;;;0.30;90.16
20368;BME280;10343;52.402;9.796;2022-12-10T10:49:30;100543.56;;;0.50;89.49
20368;BME280;10343;52.402;9.796;2022-12-10T10:52:38;100542.75;;;0.53;89.16
20368;BME280;10343;52.402;9.796;2022-12-10T10:55:47;100553.25;;;0.58;88.98
20368;BME280;10343;52.402;9.796;2022-12-10T11:35:24;100543.97;;;0.20;89.68
20368;BME280;10343;52.402;9.796;2022-12-10T11:38:25;100544.19;;;0.34;89.76
20368;BME280;10343;52.402;9.796;2022-12-10T11:41:40;100548.56;;;0.37;90.14
20368;BME280;10343;52.402;9.796;2022-12-10T11:44:43;100542.69;;;0.48;89.42
20368;BME280;10343;52.402;9.796;2022-12-10T11:47:56;100546.34;;;0.60;88.36
20368;BME280;10343;52.402;9.796;2022-12-10T11:51:34;100546.28;;;0.57;88.78
20368;BME280;10343;52.402;9.796;2022-12-10T11:54:33;100545.59;;;0.70;87.69
20368;BME280;10343;52.402;9.796;2022-12-10T11:57:45;100543.69;;;0.57;87.48
20368;BME280;10343;52.402;9.796;2022-12-10T12:00:40;100545.19;;;0.42;88.00
20368;BME280;10343;52.402;9.796;2022-12-10T12:06:11;100550.25;;;0.33;88.95
20368;BME280;10343;52.402;9.796;2022-12-10T12:09:32;100554.16;;;0.58;88.91
20368;BME280;10343;52.402;9.796;2022-12-10T12:12:24;100559.25;;;0.52;88.08
20368;BME280;10343;52.402;9.796;2022-12-10T12:15:40;100554.66;;;0.37;88.54
20368;BME280;10343;52.402;9.796;2022-12-10T12:18:39;100550.34;;;0.39;89.64
20368;BME280;10343;52.402;9.796;2022-12-10T12:21:23;100553.72;;;0.32;89.91
20368;BME280;10343;52.402;9.796;2022-12-10T12:24:43;100559.00;;;0.37;90.62
20368;BME280;10343;52.402;9.796;2022-12-10T12:27:53;100560.19;;;0.56;90.30
20368;BME280;10343;52.402;9.796;2022-12-10T12:31:20;100555.84;;;0.56;89.97
20368;BME280;10343;52.402;9.796;2022-12-10T12:34:37;100550.00;;;0.74;88.62
20368;BME280;10343;52.402;9.796;2022-12-10T12:38:00;100543.69;;;0.57;87.56
20368;BME280;10343;52.402;9.796;2022-12-10T12:41:31;100543.81;;;0.66;88.01
20368;BME280;10343;52.402;9.796;2022-12-10T13:07:44;100544.13;;;0.31;89.59
20368;BME280;10343;52.402;9.796;2022-12-10T13:11:14;100557.13;;;0.26;89.79
20368;BME280;10343;52.402;9.796;2022-12-10T13:14:33;100553.78;;;0.37;89.70
20368;BME280;10343;52.402;9.796;2022-12-10T13:17:28;100559.22;;;0.50;90.32
20368;BME280;10343;52.402;9.796;2022-12-10T13:31:19;100562.75;;;0.53;89.67
20368;BME280;10343;52.402;9.796;2022-12-10T13:34:30;100570.66;;;0.59;89.37
20368;BME280;10343;52.402;9.796;2022-12-10T13:37:27;100563.69;;;0.58;90.13
20368;BME280;10343;52.402;9.796;2022-12-10T13:40:24;100564.78;;;0.71;90.16
20368;BME280;10343;52.402;9.796;2022-12-10T13:42:58;100567.00;;;0.47;90.44
20368;BME280;10343;52.402;9.796;2022-12-10T13:46:30;100560.69;;;0.90;89.47
20368;BME280;10343;52.402;9.796;2022-12-10T13:49:17;100563.31;;;0.90;88.78
20368;BME280;10343;52.402;9.796;2022-12-10T13:52:01;100568.25;;;0.71;89.17
20368;BME280;10343;52.402;9.796;2022-12-10T13:55:04;100576.06;;;0.71;88.67
20368;BME280;10343;52.402;9.796;2022-12-10T13:58:40;100572.69;;;0.78;88.32
20368;BME280;10343;52.402;9.796;2022-12-10T14:05:32;100577.88;;;0.75;87.74
20368;BME280;10343;52.402;9.796;2022-12-10T14:08:17;100583.13;;;0.78;86.55
20368;BME280;10343;52.402;9.796;2022-12-10T14:11:00;100590.16;;;0.82;87.21
20368;BME280;10343;52.402;9.796;2022-12-10T14:13:41;100588.47;;;0.84;86.72
20368;BME280;10343;52.402;9.796;2022-12-10T14:16:53;100583.25;;;0.84;87.77
20368;BME280;10343;52.402;9.796;2022-12-10T14:20:14;100591.97;;;0.87;87.63
20368;BME280;10343;52.402;9.796;2022-12-10T14:23:21;100591.09;;;0.86;87.98
20368;BME280;10343;52.402;9.796;2022-12-10T14:26:46;100595.47;;;0.89;87.49
20368;BME280;10343;52.402;9.796;2022-12-10T14:29:37;100598.97;;;0.89;87.94
20368;BME280;10343;52.402;9.796;2022-12-10T14:32:32;100600.72;;;0.89;86.39
20368;BME280;10343;52.402;9.796;2022-12-10T14:35:40;100601.59;;;0.92;88.04
20368;BME280;10343;52.402;9.796;2022-12-10T14:39:00;100591.91;;;0.83;87.89
20368;BME280;10343;52.402;9.796;2022-12-10T14:41:42;100600.84;;;0.98;86.27
20368;BME280;10343;52.402;9.796;2022-12-10T14:44:56;100595.25;;;0.73;87.55
20368;BME280;10343;52.402;9.796;2022-12-10T14:47:44;100595.28;;;0.75;87.20
20368;BME280;10343;52.402;9.796;2022-12-10T14:50:19;100594.31;;;0.68;85.82
20368;BME280;10343;52.402;9.796;2022-12-10T14:53:05;100590.03;;;0.73;85.94
20368;BME280;10343;52.402;9.796;2022-12-10T14:56:12;100589.72;;;0.55;85.88
20368;BME280;10343;52.402;9.796;2022-12-10T14:59:07;100596.88;;;0.66;86.17
20368;BME280;10343;52.402;9.796;2022-12-10T15:01:52;100600.13;;;0.52;86.57
20368;BME280;10343;52.402;9.796;2022-12-10T15:04:42;100591.25;;;0.40;87.66
20368;BME280;10343;52.402;9.796;2022-12-10T15:07:25;100591.72;;;0.70;87.45
20368;BME280;10343;52.402;9.796;2022-12-10T15:09:58;100598.56;;;0.63;87.55
20368;BME280;10343;52.402;9.796;2022-12-10T15:15:36;100598.91;;;0.86;87.29
20368;BME280;10343;52.402;9.796;2022-12-10T15:18:15;100605.63;;;0.70;87.58
20368;BME280;10343;52.402;9.796;2022-12-10T15:20:52;100611.66;;;0.67;87.96
20368;BME280;10343;52.402;9.796;2022-12-10T15:24:19;100605.69;;;0.73;88.34
20368;BME280;10343;52.402;9.796;2022-12-10T15:27:15;100611.03;;;0.82;87.62
20368;BME280;10343;52.402;9.796;2022-12-10T15:29:46;100609.53;;;0.98;86.69
20368;BME280;10343;52.402;9.796;2022-12-10T15:32:23;100614.72;;;0.94;86.91
20368;BME280;10343;52.402;9.796;2022-12-10T15:34:54;100619.75;;;0.81;87.44
20368;BME280;10343;52.402;9.796;2022-12-10T15:37:26;100617.22;;;0.88;87.23
20368;BME280;10343;52.402;9.796;2022-12-10T15:39:58;100613.66;;;0.82;87.75
20368;BME280;10343;52.402;9.796;2022-12-10T15:42:37;100618.16;;;0.93;87.55
20368;BME280;10343;52.402;9.796;2022-12-10T15:45:16;100617.41;;;1.01;87.15
20368;BME280;10343;52.402;9.796;2022-12-10T15:47:48;100612.84;;;0.87;86.47
20368;BME280;10343;52.402;9.796;2022-12-10T15:50:16;100621.38;;;0.75;87.53
20368;BME280;10343;52.402;9.796;2022-12-10T15:52:46;100619.88;;;0.91;87.28
20368;BME280;10343;52.402;9.796;2022-12-10T15:55:14;100626.69;;;0.82;87.18
20368;BME280;10343;52.402;9.796;2022-12-10T15:57:44;100619.13;;;0.98;86.92
20368;BME280;10343;52.402;9.796;2022-12-10T16:00:18;100625.88;;;0.85;86.32
20368;BME280;10343;52.402;9.796;2022-12-10T16:02:52;100622.22;;;0.74;86.42
20368;BME280;10343;52.402;9.796;2022-12-10T16:05:28;100631.06;;;0.82;86.43
20368;BME280;10343;52.402;9.796;2022-12-10T16:08:00;100630.25;;;0.86;86.22
20368;BME280;10343;52.402;9.796;2022-12-10T16:10:29;100621.44;;;0.79;86.68
20368;BME280;10343;52.402;9.796;2022-12-10T16:13:00;100621.56;;;0.86;87.17
20368;BME280;10343;52.402;9.796;2022-12-10T16:15:42;100626.47;;;0.67;86.83
20368;BME280;10343;52.402;9.796;2022-12-10T16:18:25;100623.09;;;0.74;86.35
20368;BME280;10343;52.402;9.796;2022-12-10T16:20:59;100627.91;;;1.05;85.59
20368;BME280;10343;52.402;9.796;2022-12-10T16:23:27;100623.47;;;0.99;85.77
20368;BME280;10343;52.402;9.796;2022-12-10T16:25:58;100632.28;;;1.07;85.50
20368;BME280;10343;52.402;9.796;2022-12-10T16:28:27;100629.75;;;1.10;84.89
20368;BME280;10343;52.402;9.796;2022-12-10T16:30:58;100628.38;;;0.77;86.08
20368;BME280;10343;52.402;9.796;2022-12-10T16:33:32;100632.50;;;0.64;86.57
20368;BME280;10343;52.402;9.796;2022-12-10T16:36:05;100632.72;;;0.78;87.01
20368;BME280;10343;52.402;9.796;2022-12-10T16:38:52;100640.66;;;0.84;86.51
20368;BME280;10343;52.402;9.796;2022-12-10T16:41:37;100638.81;;;0.77;87.00
20368;BME280;10343;52.402;9.796;2022-12-10T16:44:50;100634.72;;;0.96;86.89
20368;BME280;10343;52.402;9.796;2022-12-10T17:07:59;100628.06;;;0.59;88.28
20368;BME280;10343;52.402;9.796;2022-12-10T17:10:35;100628.19;;;0.65;88.43
20368;BME280;10343;52.402;9.796;2022-12-10T17:13:27;100635.41;;;0.81;87.69
20368;BME280;10343;52.402;9.796;2022-12-10T17:16:02;100636.09;;;0.71;87.90
20368;BME280;10343;52.402;9.796;2022-12-10T17:37:10;100638.53;;;0.62;88.26
20368;BME280;10343;52.402;9.796;2022-12-10T17:39:39;100641.84;;;0.50;86.91
20368;BME280;10343;52.402;9.796;2022-12-10T17:42:09;100642.31;;;0.79;86.71
20368;BME280;10343;52.402;9.796;2022-12-10T17:44:38;100642.44;;;0.86;86.40
20368;BME280;10343;52.402;9.796;2022-12-10T17:48:01;100638.13;;;0.89;85.52
20368;BME280;10343;52.402;9.796;2022-12-10T17:51:34;100644.91;;;0.78;86.03
20368;BME280;10343;52.402;9.796;2022-12-10T18:09:01;100649.19;;;0.74;82.65
20368;BME280;10343;52.402;9.796;2022-12-10T18:14:46;100640.34;;;0.66;84.13
20368;BME280;10343;52.402;9.796;2022-12-10T18:17:54;100643.88;;;0.68;84.23